createdAt,value
2018-12-30T00:02:44.373Z,52.99
2018-12-30T00:05:50.529Z,52.87
2018-12-30T00:08:56.570Z,52.51
2018-12-30T00:12:02.191Z,52.32
2018-12-30T00:15:07.860Z,52.50
2018-12-30T00:18:13.500Z,52.12
2018-12-30T00:21:19.125Z,52.39
2018-12-30T00:24:24.726Z,51.91
2018-12-30T00:27:30.317Z,52.85
2018-12-30T00:30:35.933Z,52.92
2018-12-30T00:33:41.527Z,52.63
2018-12-30T00:36:47.151Z,52.67
2018-12-30T00:39:53.051Z,52.69
2018-12-30T00:42:58.711Z,52.82
2018-12-30T00:46:04.458Z,52.96
2018-12-30T00:49:10.052Z,52.93
2018-12-30T00:52:15.662Z,53.11
2018-12-30T00:55:21.299Z,53.04
2018-12-30T00:58:26.883Z,52.83
2018-12-30T01:01:32.525Z,52.17
2018-12-30T01:04:38.140Z,52.33
2018-12-30T01:07:43.801Z,52.74
2018-12-30T01:10:49.460Z,52.21
2018-12-30T01:13:55.089Z,52.74
2018-12-30T01:17:00.745Z,52.84
2018-12-30T01:20:07.382Z,52.47
2018-12-30T01:23:13.010Z,52.64
2018-12-30T01:26:18.671Z,52.81
2018-12-30T01:29:24.323Z,52.99
2018-12-30T01:32:29.963Z,53.25
2018-12-30T01:35:35.932Z,53.45
2018-12-30T01:38:41.556Z,53.05
2018-12-30T01:41:47.192Z,53.38
2018-12-30T01:44:52.827Z,52.66
2018-12-30T01:47:58.421Z,53.92
2018-12-30T01:51:04.042Z,53.61
2018-12-30T01:54:09.627Z,53.67
2018-12-30T01:57:15.259Z,54.04
2018-12-30T02:00:20.879Z,54.16
2018-12-30T02:03:26.532Z,54.65
2018-12-30T02:06:32.237Z,54.38
2018-12-30T02:09:38.028Z,55.21
2018-12-30T02:12:43.652Z,55.92
2018-12-30T02:15:49.248Z,54.77
2018-12-30T02:18:54.935Z,55.49
2018-12-30T02:22:00.933Z,55.12
2018-12-30T02:25:06.746Z,55.51
2018-12-30T02:28:12.355Z,54.97
2018-12-30T02:31:18.014Z,55.09
2018-12-30T02:34:24.042Z,55.59
2018-12-30T02:37:29.701Z,54.93
2018-12-30T02:40:35.344Z,55.64
2018-12-30T02:43:40.969Z,55.11
2018-12-30T02:46:46.638Z,54.54
2018-12-30T02:49:52.232Z,54.63
2018-12-30T02:52:57.863Z,54.74
2018-12-30T02:56:03.671Z,54.34
2018-12-30T02:59:09.281Z,54.90
2018-12-30T03:02:14.903Z,54.12
2018-12-30T03:05:20.497Z,54.07
2018-12-30T03:08:26.297Z,54.19
2018-12-30T03:11:32.282Z,54.85
2018-12-30T03:14:37.934Z,54.61
2018-12-30T03:17:43.556Z,54.68
2018-12-30T03:20:49.183Z,54.32
2018-12-30T03:23:55.188Z,54.01
2018-12-30T03:27:00.843Z,53.52
2018-12-30T03:30:07.296Z,53.96
2018-12-30T03:33:12.914Z,54.04
2018-12-30T03:36:18.582Z,53.48
2018-12-30T03:39:24.248Z,53.38
2018-12-30T03:42:29.866Z,53.27
2018-12-30T03:45:35.485Z,53.57
2018-12-30T03:48:41.143Z,53.29
2018-12-30T03:51:46.822Z,53.62
2018-12-30T03:54:52.454Z,53.71
2018-12-30T03:57:58.148Z,54.11
2018-12-30T04:01:03.771Z,54.14
2018-12-30T04:04:09.388Z,53.46
2018-12-30T04:07:14.986Z,53.13
2018-12-30T04:10:20.572Z,53.58
2018-12-30T04:13:26.162Z,52.91
2018-12-30T04:16:31.777Z,52.53
2018-12-30T04:19:37.400Z,52.81
2018-12-30T04:22:43.043Z,52.56
2018-12-30T04:25:48.732Z,52.30
2018-12-30T04:28:54.378Z,52.21
2018-12-30T04:32:00.008Z,52.54
2018-12-30T04:35:06.073Z,52.16
2018-12-30T04:38:11.694Z,51.75
2018-12-30T04:41:17.268Z,52.57
2018-12-30T04:44:22.883Z,52.63
2018-12-30T04:47:28.506Z,52.16
2018-12-30T04:50:34.153Z,52.33
2018-12-30T04:53:39.821Z,52.05
2018-12-30T04:56:45.472Z,52.59
2018-12-30T04:59:51.124Z,52.83
2018-12-30T05:02:56.764Z,52.33
2018-12-30T05:06:02.507Z,51.92
2018-12-30T05:09:08.900Z,51.73
2018-12-30T05:12:14.529Z,51.60
2018-12-30T05:15:20.102Z,51.01
2018-12-30T05:18:25.698Z,51.17
2018-12-30T05:21:31.303Z,51.70
2018-12-30T05:24:36.933Z,51.67
2018-12-30T05:27:42.523Z,51.76
2018-12-30T05:30:48.137Z,51.70
2018-12-30T05:33:53.736Z,51.12
2018-12-30T05:36:59.321Z,51.02
2018-12-30T05:40:05.058Z,50.83
2018-12-30T05:43:10.686Z,51.15
2018-12-30T05:46:16.339Z,50.69
2018-12-30T05:49:22.003Z,50.30
2018-12-30T05:52:27.664Z,50.39
2018-12-30T05:55:33.329Z,50.68
2018-12-30T05:58:38.967Z,50.36
2018-12-30T06:01:44.558Z,50.78
2018-12-30T06:04:50.193Z,51.04
2018-12-30T06:07:55.808Z,50.95
2018-12-30T06:11:01.466Z,50.72
2018-12-30T06:14:07.089Z,51.75
2018-12-30T06:17:12.743Z,51.37
2018-12-30T06:20:18.411Z,50.99
2018-12-30T06:23:24.257Z,50.96
2018-12-30T06:26:29.881Z,50.56
2018-12-30T06:29:35.480Z,50.75
2018-12-30T06:32:41.102Z,50.36
2018-12-30T06:35:46.698Z,50.44
2018-12-30T06:38:52.303Z,50.79
2018-12-30T06:41:57.945Z,50.92
2018-12-30T06:45:03.579Z,51.10
2018-12-30T06:48:09.185Z,51.40
2018-12-30T06:51:14.808Z,51.43
2018-12-30T06:54:20.511Z,51.83
2018-12-30T06:57:26.181Z,52.01
2018-12-30T07:00:31.800Z,52.09
2018-12-30T07:03:37.439Z,52.00
2018-12-30T07:06:43.111Z,51.34
2018-12-30T07:09:48.731Z,50.95
2018-12-30T07:12:54.407Z,50.55
2018-12-30T07:16:00.098Z,50.57
2018-12-30T07:19:06.676Z,50.67
2018-12-30T07:22:12.295Z,50.65
2018-12-30T07:25:17.894Z,51.29
2018-12-30T07:28:23.484Z,51.10
2018-12-30T07:31:29.070Z,50.46
2018-12-30T07:34:34.705Z,50.00
2018-12-30T07:37:40.319Z,49.93
2018-12-30T07:40:45.947Z,48.99
2018-12-30T07:43:51.651Z,48.08
2018-12-30T07:46:57.411Z,47.00
2018-12-30T07:50:03.053Z,45.81
2018-12-30T07:53:13.640Z,44.42
2018-12-30T07:56:16.068Z,42.85
2018-12-30T07:59:22.704Z,42.54
2018-12-30T08:02:28.398Z,41.96
2018-12-30T08:05:34.036Z,41.52
2018-12-30T08:08:39.704Z,40.24
2018-12-30T08:11:45.331Z,39.54
2018-12-30T08:14:51.131Z,38.67
2018-12-30T08:17:56.723Z,38.37
2018-12-30T08:21:02.340Z,39.13
2018-12-30T08:24:07.970Z,39.28
2018-12-30T08:27:13.597Z,38.81
2018-12-30T08:30:19.228Z,38.77
2018-12-30T08:33:24.876Z,38.38
2018-12-30T08:36:30.486Z,36.86
2018-12-30T08:39:36.154Z,36.46
2018-12-30T08:42:42.118Z,36.28
2018-12-30T08:45:47.719Z,36.30
2018-12-30T08:48:53.357Z,35.68
2018-12-30T08:51:59.007Z,35.81
2018-12-30T08:55:04.663Z,35.97
2018-12-30T08:58:10.285Z,35.37
2018-12-30T09:01:15.884Z,35.61
2018-12-30T09:04:21.487Z,35.64
2018-12-30T09:07:27.105Z,35.52
2018-12-30T09:10:32.790Z,35.17
2018-12-30T09:13:38.433Z,34.99
2018-12-30T09:16:44.046Z,36.28
2018-12-30T09:19:49.721Z,35.34
2018-12-30T09:22:55.380Z,35.30
2018-12-30T09:26:01.092Z,34.41
2018-12-30T09:29:06.768Z,33.50
2018-12-30T09:32:12.377Z,33.16
2018-12-30T09:35:18.017Z,33.82
2018-12-30T09:38:23.596Z,33.11
2018-12-30T09:41:29.201Z,33.20
2018-12-30T09:44:34.860Z,32.76
2018-12-30T09:47:40.442Z,32.64
2018-12-30T09:50:46.302Z,32.72
2018-12-30T09:53:52.056Z,32.55
2018-12-30T09:56:57.742Z,33.01
2018-12-30T10:00:03.891Z,32.52
2018-12-30T10:03:09.485Z,32.17
2018-12-30T10:06:15.081Z,32.52
2018-12-30T10:09:20.723Z,33.18
2018-12-30T10:12:26.314Z,33.16
2018-12-30T10:15:31.956Z,32.95
2018-12-30T10:18:37.587Z,33.99
2018-12-30T10:21:43.258Z,33.24
2018-12-30T10:24:48.921Z,32.54
2018-12-30T10:27:54.544Z,32.30
2018-12-30T10:31:00.267Z,32.35
2018-12-30T10:34:05.913Z,32.26
2018-12-30T10:37:11.620Z,31.90
2018-12-30T10:40:17.296Z,31.76
2018-12-30T10:43:22.943Z,31.88
2018-12-30T10:46:28.578Z,33.38
2018-12-30T10:49:34.162Z,33.99
2018-12-30T10:52:39.787Z,34.31
2018-12-30T10:55:45.844Z,34.16
2018-12-30T10:58:51.481Z,34.85
2018-12-30T11:01:57.068Z,34.67
2018-12-30T11:05:02.709Z,34.40
2018-12-30T11:08:09.399Z,34.30
2018-12-30T11:11:15.119Z,33.77
2018-12-30T11:14:20.733Z,32.76
2018-12-30T11:17:26.418Z,32.12
2018-12-30T11:20:32.039Z,33.20
2018-12-30T11:23:37.621Z,32.92
2018-12-30T11:26:43.265Z,33.13
2018-12-30T11:29:48.850Z,33.00
2018-12-30T11:32:54.441Z,32.91
2018-12-30T11:36:00.105Z,32.96
2018-12-30T11:39:07.549Z,32.55
2018-12-30T11:42:13.208Z,31.85
2018-12-30T11:45:18.878Z,30.89
2018-12-30T11:48:24.625Z,29.05
2018-12-30T11:51:30.290Z,28.73
2018-12-30T11:54:35.914Z,28.29
2018-12-30T11:57:41.547Z,28.05
2018-12-30T12:00:48.174Z,28.36
2018-12-30T12:03:53.766Z,28.65
2018-12-30T12:06:59.424Z,29.16
2018-12-30T12:10:05.616Z,30.35
2018-12-30T12:13:11.246Z,32.06
2018-12-30T12:16:16.887Z,32.34
2018-12-30T12:19:22.465Z,33.24
2018-12-30T12:22:28.075Z,34.02
2018-12-30T12:25:33.734Z,33.13
2018-12-30T12:28:39.410Z,34.80
2018-12-30T12:31:45.061Z,35.33
2018-12-30T12:34:50.680Z,35.21
2018-12-30T12:37:56.294Z,33.52
2018-12-30T12:41:01.923Z,33.45
2018-12-30T12:44:07.591Z,33.25
2018-12-30T12:47:13.217Z,32.65
2018-12-30T12:50:18.808Z,32.48
2018-12-30T12:53:24.402Z,31.78
2018-12-30T12:56:30.036Z,31.76
2018-12-30T12:59:35.674Z,31.87
2018-12-30T13:02:41.277Z,31.91
2018-12-30T13:05:46.916Z,31.83
2018-12-30T13:08:52.495Z,32.16
2018-12-30T13:11:58.099Z,32.29
2018-12-30T13:15:03.717Z,32.43
2018-12-30T13:18:09.348Z,32.63
2018-12-30T13:21:15.172Z,32.27
2018-12-30T13:24:20.814Z,32.38
2018-12-30T13:27:26.488Z,32.67
2018-12-30T13:30:32.445Z,32.64
2018-12-30T13:33:38.075Z,32.88
2018-12-30T13:36:43.710Z,32.82
2018-12-30T13:39:49.299Z,33.07
2018-12-30T13:42:54.926Z,32.89
2018-12-30T13:46:00.558Z,33.14
2018-12-30T13:49:06.155Z,33.19
2018-12-30T13:52:11.801Z,33.30
2018-12-30T13:55:17.458Z,33.50
2018-12-30T13:58:23.075Z,33.66
2018-12-30T14:01:28.781Z,33.70
2018-12-30T14:04:34.383Z,34.03
2018-12-30T14:07:40.009Z,34.18
2018-12-30T14:10:45.647Z,34.62
2018-12-30T14:13:51.237Z,34.59
2018-12-30T14:16:56.866Z,34.72
2018-12-30T14:20:02.509Z,34.91
2018-12-30T14:23:08.110Z,35.23
2018-12-30T14:26:13.754Z,35.30
2018-12-30T14:29:19.434Z,35.54
2018-12-30T14:32:25.118Z,35.92
2018-12-30T14:35:30.740Z,35.63
2018-12-30T14:38:36.375Z,35.89
2018-12-30T14:41:42.043Z,36.07
2018-12-30T14:44:47.720Z,36.00
2018-12-30T14:47:53.395Z,36.26
2018-12-30T14:50:59.058Z,36.54
2018-12-30T14:54:04.715Z,36.71
2018-12-30T14:57:10.395Z,36.77
2018-12-30T15:00:16.115Z,36.96
2018-12-30T15:03:21.727Z,37.01
2018-12-30T15:06:27.348Z,37.00
2018-12-30T15:09:35.773Z,37.22
2018-12-30T15:12:40.287Z,37.19
2018-12-30T15:15:45.981Z,37.02
2018-12-30T15:18:51.603Z,37.68
2018-12-30T15:21:57.243Z,37.74
2018-12-30T15:25:02.867Z,37.83
2018-12-30T15:28:08.516Z,38.06
2018-12-30T15:31:14.122Z,38.38
2018-12-30T15:34:19.720Z,38.42
2018-12-30T15:37:25.370Z,38.08
2018-12-30T15:40:31.035Z,37.96
2018-12-30T15:43:36.724Z,37.99
2018-12-30T15:46:42.355Z,37.99
2018-12-30T15:49:48.043Z,38.09
2018-12-30T15:52:53.786Z,38.53
2018-12-30T15:55:59.431Z,38.71
2018-12-30T15:59:05.079Z,38.34
2018-12-30T16:02:10.855Z,38.57
2018-12-30T16:05:16.489Z,39.15
2018-12-30T16:08:22.107Z,39.33
2018-12-30T16:11:27.730Z,39.78
2018-12-30T16:14:33.378Z,40.30
2018-12-30T16:17:39.014Z,40.51
2018-12-30T16:20:44.621Z,40.79
2018-12-30T16:23:50.266Z,40.56
2018-12-30T16:26:55.862Z,40.59
2018-12-30T16:30:01.483Z,40.74
2018-12-30T16:33:07.224Z,40.66
2018-12-30T16:36:12.815Z,40.98
2018-12-30T16:39:18.463Z,40.94
2018-12-30T16:42:24.098Z,41.46
2018-12-30T16:45:29.743Z,41.74
2018-12-30T16:48:35.386Z,41.50
2018-12-30T16:51:40.978Z,41.85
2018-12-30T16:54:46.578Z,42.10
2018-12-30T16:57:52.235Z,41.75
2018-12-30T17:00:57.901Z,42.03
2018-12-30T17:04:04.090Z,41.97
2018-12-30T17:07:09.838Z,42.08
2018-12-30T17:10:15.628Z,42.15
2018-12-30T17:13:21.295Z,42.23
2018-12-30T17:16:26.968Z,42.20
2018-12-30T17:19:32.634Z,42.02
2018-12-30T17:22:38.223Z,41.70
2018-12-30T17:25:43.877Z,41.64
2018-12-30T17:28:49.473Z,41.61
2018-12-30T17:31:55.098Z,42.06
2018-12-30T17:35:00.743Z,41.64
2018-12-30T17:38:06.452Z,41.87
2018-12-30T17:41:13.047Z,41.65
2018-12-30T17:44:18.682Z,41.96
2018-12-30T17:47:24.344Z,41.66
2018-12-30T17:50:30.033Z,42.57
2018-12-30T17:53:35.686Z,42.72
2018-12-30T17:56:41.416Z,42.70
2018-12-30T17:59:47.081Z,43.00
2018-12-30T18:02:52.719Z,42.56
2018-12-30T18:05:58.455Z,42.11
2018-12-30T18:09:04.792Z,41.94
2018-12-30T18:12:10.649Z,41.88
2018-12-30T18:15:16.303Z,42.40
2018-12-30T18:18:21.905Z,42.05
2018-12-30T18:21:27.532Z,41.83
2018-12-30T18:24:33.137Z,42.66
2018-12-30T18:27:39.848Z,42.62
2018-12-30T18:30:45.500Z,42.74
2018-12-30T18:33:51.123Z,43.04
2018-12-30T18:36:56.952Z,42.86
2018-12-30T18:40:02.619Z,43.04
2018-12-30T18:43:08.261Z,43.42
2018-12-30T18:46:13.930Z,43.35
2018-12-30T18:49:19.558Z,43.63
2018-12-30T18:52:25.181Z,43.37
2018-12-30T18:55:30.872Z,43.45
2018-12-30T18:58:36.554Z,43.45
2018-12-30T19:01:42.182Z,43.53
2018-12-30T19:04:47.787Z,43.43
2018-12-30T19:07:53.442Z,44.32
2018-12-30T19:10:59.070Z,44.32
2018-12-30T19:14:04.691Z,44.17
2018-12-30T19:17:10.363Z,44.32
2018-12-30T19:20:16.034Z,44.17
2018-12-30T19:23:21.794Z,43.70
2018-12-30T19:26:27.392Z,44.19
2018-12-30T19:29:33.004Z,44.17
2018-12-30T19:32:38.742Z,44.11
2018-12-30T19:35:44.369Z,44.83
2018-12-30T19:38:50.046Z,45.17
2018-12-30T19:41:55.669Z,45.38
2018-12-30T19:45:01.269Z,46.06
2018-12-30T19:48:06.893Z,46.10
2018-12-30T19:51:12.525Z,46.01
2018-12-30T19:54:18.155Z,45.69
2018-12-30T19:57:23.811Z,46.41
2018-12-30T20:00:29.468Z,46.01
2018-12-30T20:03:35.130Z,46.27
2018-12-30T20:06:40.804Z,46.33
2018-12-30T20:09:46.435Z,46.11
2018-12-30T20:12:52.072Z,45.95
2018-12-30T20:15:57.676Z,45.65
2018-12-30T20:19:03.286Z,45.77
2018-12-30T20:22:08.918Z,46.95
2018-12-30T20:25:14.524Z,46.88
2018-12-30T20:28:20.157Z,46.73
2018-12-30T20:31:25.847Z,46.98
2018-12-30T20:34:31.532Z,46.56
2018-12-30T20:37:37.153Z,46.79
2018-12-30T20:40:42.759Z,46.83
2018-12-30T20:43:48.415Z,46.59
2018-12-30T20:46:54.016Z,46.69
2018-12-30T20:49:59.645Z,46.43
2018-12-30T20:53:05.268Z,47.27
2018-12-30T20:56:10.945Z,47.60
2018-12-30T20:59:17.121Z,46.59
2018-12-30T21:02:22.742Z,47.25
2018-12-30T21:05:28.397Z,47.02
2018-12-30T21:08:34.074Z,47.60
2018-12-30T21:11:39.723Z,47.55
2018-12-30T21:14:45.355Z,47.29
2018-12-30T21:17:51.025Z,46.95
2018-12-30T21:20:56.655Z,47.42
2018-12-30T21:24:02.369Z,48.06
2018-12-30T21:27:08.048Z,47.67
2018-12-30T21:30:13.683Z,47.68
2018-12-30T21:33:19.359Z,47.54
2018-12-30T21:36:24.963Z,47.37
2018-12-30T21:39:30.531Z,47.75
2018-12-30T21:42:43.508Z,47.97
2018-12-30T21:45:43.549Z,47.78
2018-12-30T21:48:49.199Z,47.97
2018-12-30T21:51:54.914Z,47.73
2018-12-30T21:55:00.545Z,48.07
2018-12-30T21:58:06.185Z,47.57
2018-12-30T22:01:11.785Z,47.92
2018-12-30T22:04:17.412Z,47.39
2018-12-30T22:07:23.014Z,47.83
2018-12-30T22:10:28.592Z,47.82
2018-12-30T22:13:34.220Z,47.41
2018-12-30T22:16:39.858Z,47.26
2018-12-30T22:19:45.559Z,47.31
2018-12-30T22:22:51.195Z,47.56
2018-12-30T22:25:56.861Z,47.17
2018-12-30T22:29:02.541Z,47.29
2018-12-30T22:32:08.175Z,47.17
2018-12-30T22:35:13.806Z,47.62
2018-12-30T22:38:19.453Z,47.67
2018-12-30T22:41:25.081Z,47.54
2018-12-30T22:44:30.695Z,47.79
2018-12-30T22:47:36.292Z,48.74
2018-12-30T22:50:41.916Z,48.92
2018-12-30T22:53:47.557Z,49.28
2018-12-30T22:56:53.211Z,49.35
2018-12-30T22:59:58.841Z,50.06
2018-12-30T23:03:04.732Z,50.54
2018-12-30T23:06:10.334Z,50.55
2018-12-30T23:09:15.999Z,50.51
2018-12-30T23:12:21.970Z,50.39
2018-12-30T23:15:27.588Z,50.63
2018-12-30T23:18:33.298Z,50.38
2018-12-30T23:21:38.911Z,50.25
2018-12-30T23:24:44.554Z,50.29
2018-12-30T23:27:50.169Z,50.21
2018-12-30T23:30:55.751Z,50.26
2018-12-30T23:34:01.376Z,50.25
2018-12-30T23:37:07.116Z,50.40
2018-12-30T23:40:12.773Z,50.32
2018-12-30T23:43:18.411Z,49.89
2018-12-30T23:46:24.087Z,50.11
2018-12-30T23:49:29.734Z,50.48
2018-12-30T23:52:35.367Z,49.66
2018-12-30T23:55:40.997Z,49.45
2018-12-30T23:58:46.582Z,49.23
